Time;durP1;ratioP1;P1;durP2;ratioP2;P2;SDS_P1;SDS_P2;PMS_P1;PMS_P2;Temp;Humidity;BMP_temperature;BMP_pressure;BME280_temperature;BME280_humidity;BME280_pressure;Samples;Min_cycle;Max_cycle;Signal;HPM_P1;HPM_P2
2022/10/05 00:02:21;;;;;;;7.07;3.15;;;11.40;99.90;;;10.12;100.00;101019.31;4957136;28;20469;-74
2022/10/05 00:04:52;;;;;;;6.15;3.13;;;11.40;99.90;;;10.19;99.80;101030.22;4965567;28;20125;-73
2022/10/05 00:07:21;;;;;;;7.70;3.80;;;11.40;99.90;;;10.20;99.36;101032.75;4967266;28;20038;-75
2022/10/05 00:09:55;;;;;;;5.55;2.67;;;11.40;99.90;;;10.34;98.34;101030.06;4966614;28;20985;-73
2022/10/05 00:12:22;;;;;;;6.30;3.25;;;11.50;99.90;;;10.41;97.02;101030.09;4963731;28;20031;-74
2022/10/05 00:14:54;;;;;;;9.07;2.92;;;11.60;99.90;;;10.45;96.82;101032.22;4962151;28;20027;-74
2022/10/05 00:17:27;;;;;;;6.30;3.17;;;11.70;99.90;;;10.36;96.83;101020.63;4963212;28;20150;-75
2022/10/05 00:19:53;;;;;;;6.63;3.20;;;11.70;99.90;;;10.46;96.71;101028.44;4962645;28;20445;-74
2022/10/05 00:22:31;;;;;;;4.78;2.67;;;11.70;99.90;;;10.43;96.43;101017.97;4966943;28;20602;-74
2022/10/05 00:25:10;;;;;;;4.50;2.60;;;11.70;99.90;;;10.45;96.42;101004.94;4961450;28;20022;-74
2022/10/05 00:27:37;;;;;;;7.82;3.08;;;11.70;99.90;;;10.42;96.70;101005.38;4962806;28;20035;-74
2022/10/05 00:30:17;;;;;;;5.15;3.10;;;11.70;99.90;;;10.42;96.66;100994.47;4966669;28;20031;-74
2022/10/05 00:32:44;;;;;;;8.32;2.78;;;11.70;99.90;;;10.52;96.34;101001.38;4961067;28;20457;-74
2022/10/05 00:35:14;;;;;;;8.02;3.25;;;11.70;99.90;;;10.46;96.29;100993.00;4963412;28;20122;-75
2022/10/05 00:37:40;;;;;;;8.38;3.53;;;11.70;99.90;;;10.54;96.23;101004.75;4959456;28;20109;-75
2022/10/05 00:40:35;;;;;;;5.35;3.28;;;11.70;99.90;;;10.53;96.31;101006.66;4965174;28;20031;-74
2022/10/05 00:43:36;;;;;;;8.98;3.60;;;11.80;99.90;;;10.62;95.43;101013.56;4966635;28;20043;-76
2022/10/05 00:46:24;;;;;;;6.47;3.22;;;11.90;99.90;;;10.72;95.03;101017.78;4959157;28;20034;-75
2022/10/05 00:49:11;;;;;;;7.15;3.70;;;11.90;99.90;;;10.73;94.74;101012.13;4960520;28;20089;-76
2022/10/05 00:51:41;;;;;;;7.18;3.60;;;11.90;99.90;;;10.67;94.65;101010.22;4962368;28;20394;-76
2022/10/05 00:54:39;;;;;;;5.88;3.38;;;11.90;99.90;;;10.64;94.63;101010.66;4964475;28;20049;-75
2022/10/05 00:57:44;;;;;;;6.07;3.25;;;11.90;99.90;;;10.64;95.11;101005.19;4955178;28;20126;-75
2022/10/05 01:00:18;;;;;;;5.40;3.38;;;11.80;99.90;;;10.57;95.70;101001.59;4959670;28;20043;-75
2022/10/05 01:03:24;;;;;;;6.38;3.92;;;11.80;99.90;;;10.61;95.45;101005.63;4959431;28;20023;-76
2022/10/05 01:06:34;;;;;;;6.35;3.50;;;11.90;99.90;;;10.63;95.70;101011.69;4963071;28;20099;-76
2022/10/05 01:09:49;;;;;;;5.72;3.28;;;11.90;99.90;;;10.69;94.90;101015.47;4963886;28;20570;-75
2022/10/05 01:13:07;;;;;;;7.93;3.72;;;11.90;99.90;;;10.74;95.00;101008.34;4960420;28;20027;-75
2022/10/05 01:15:56;;;;;;;8.55;3.47;;;11.90;99.90;;;10.65;95.73;101018.63;4962931;28;20137;-74
2022/10/05 01:18:40;;;;;;;6.43;3.53;;;11.90;99.90;;;10.63;95.56;101019.88;4968838;28;20509;-74
2022/10/05 01:21:20;;;;;;;8.93;3.38;;;11.80;99.90;;;10.42;96.66;100994.47;4964635;28;20027;-74
2022/10/05 01:24:03;;;;;;;7.80;3.28;;;11.80;99.90;;;10.56;97.44;101008.97;4959525;28;20031;-74
2022/10/05 01:27:12;;;;;;;8.40;3.90;;;11.80;99.90;;;10.54;97.75;101002.03;4958787;28;20030;-74
2022/10/05 01:30:01;;;;;;;7.70;3.90;;;11.80;99.90;;;10.56;97.62;101006.22;4959281;28;20042;-75
2022/10/05 01:32:46;;;;;;;5.60;3.20;;;11.80;99.90;;;10.55;97.27;100996.38;4961599;28;20118;-74
2022/10/05 01:35:50;;;;;;;6.32;2.92;;;11.90;99.90;;;10.69;96.98;100993.63;4960817;28;20169;-76
2022/10/05 01:38:32;;;;;;;6.13;3.47;;;11.90;99.90;;;10.73;96.59;100987.56;4965755;28;20058;-75
2022/10/05 01:41:28;;;;;;;7.03;3.70;;;11.90;99.90;;;10.73;96.92;100989.44;4961407;28;20054;-75
2022/10/05 01:44:04;;;;;;;6.30;3.60;;;11.90;99.90;;;10.75;97.20;100977.28;4963280;28;20053;-75
2022/10/05 01:47:01;;;;;;;9.05;3.80;;;11.90;99.90;;;10.76;96.43;100970.75;4959640;28;20037;-74
2022/10/05 01:49:54;;;;;;;6.97;3.30;;;12.00;99.90;;;10.90;95.58;100984.41;4963912;28;20046;-75
2022/10/05 01:52:39;;;;;;;6.85;3.28;;;12.10;99.90;;;10.98;95.57;100978.72;4962009;28;20054;-76
2022/10/05 01:55:34;;;;;;;5.97;3.30;;;12.10;99.90;;;10.97;95.06;100963.41;4962911;28;20602;-75
2022/10/05 01:58:34;;;;;;;8.52;3.40;;;12.20;99.90;;;11.00;95.27;100962.13;4978057;28;20128;-74
2022/10/05 02:01:35;;;;;;;6.68;3.13;;;12.20;99.90;;;10.97;94.56;100963.41;4966801;28;20031;-73
2022/10/05 02:04:19;;;;;;;6.22;3.58;;;12.20;99.90;;;11.06;94.50;100958.56;4969077;28;20041;-74
2022/10/05 02:06:50;;;;;;;8.60;3.45;;;12.30;99.90;;;10.94;94.34;100937.34;4961837;28;20026;-75
2022/10/05 02:09:50;;;;;;;8.00;3.58;;;12.30;99.90;;;11.12;93.78;100965.91;4964380;28;20046;-75
2022/10/05 02:12:20;;;;;;;;;;;12.30;99.90;;;11.03;94.25;100951.63;4963906;28;20046;-76
2022/10/05 02:14:54;;;;;;;6.97;3.25;;;12.30;99.90;;;11.07;94.18;100947.41;4982922;28;19940;-75
2022/10/05 02:17:31;;;;;;;9.20;4.25;;;12.30;99.90;;;11.08;94.44;100943.63;4965274;28;20033;-76
2022/10/05 02:20:04;;;;;;;9.43;4.10;;;12.30;99.90;;;11.14;94.28;100943.81;4977895;28;20137;-76
2022/10/05 02:22:42;;;;;;;8.80;3.55;;;12.40;99.90;;;11.03;94.49;100929.78;4963638;28;20034;-75
2022/10/05 02:25:23;;;;;;;7.03;3.90;;;12.40;99.90;;;11.13;94.17;100928.50;4965478;28;20031;-76
2022/10/05 02:28:01;;;;;;;6.95;3.55;;;12.40;99.90;;;11.13;94.37;100939.41;4964884;28;20098;-76
2022/10/05 02:30:30;;;;;;;5.75;3.30;;;12.40;99.90;;;11.10;94.68;100935.25;4962772;28;20051;-76
2022/10/05 02:33:41;;;;;;;9.35;3.90;;;12.40;99.90;;;11.20;93.97;100929.34;4961331;28;20242;-75
2022/10/05 02:36:26;;;;;;;8.05;3.15;;;12.40;99.90;;;11.10;94.50;100923.47;4962337;28;20034;-75
2022/10/05 02:39:19;;;;;;;8.73;3.85;;;12.40;99.90;;;11.19;94.27;100923.03;4975320;28;20034;-76
2022/10/05 02:41:57;;;;;;;8.32;4.10;;;12.40;99.90;;;11.17;94.17;100929.78;4970652;28;20046;-75
2022/10/05 02:44:38;;;;;;;6.78;4.03;;;12.40;99.90;;;11.08;95.65;100923.69;4963633;28;20034;-75
2022/10/05 02:47:26;;;;;;;6.43;3.75;;;12.40;99.90;;;11.15;94.84;100920.97;4962937;28;20050;-74
2022/10/05 02:50:09;;;;;;;8.25;4.10;;;12.40;99.90;;;11.16;95.11;100923.47;4965595;28;20031;-74
2022/10/05 02:53:33;;;;;;;9.70;3.88;;;12.30;99.90;;;11.07;94.56;100925.56;4972305;28;20061;-74
2022/10/05 02:56:31;;;;;;;6.18;3.60;;;12.40;99.90;;;11.18;94.27;100926.00;4968695;28;20113;-75
2022/10/05 02:59:19;;;;;;;5.80;3.65;;;12.40;99.90;;;11.28;93.41;100909.97;4962855;28;20466;-74
2022/10/05 03:02:20;;;;;;;6.40;3.80;;;12.50;99.90;;;11.36;92.78;100909.72;4960937;28;20034;-74
2022/10/05 03:05:30;;;;;;;6.50;3.60;;;12.60;99.90;;;11.36;92.51;100906.19;4963566;28;20178;-75
2022/10/05 03:08:05;;;;;;;8.00;4.15;;;12.60;99.90;;;11.37;92.66;100914.16;4970862;28;20137;-74
2022/10/05 03:11:26;;;;;;;6.15;4.05;;;12.60;99.90;;;11.37;92.96;100905.94;4960697;28;20043;-74
2022/10/05 03:14:25;;;;;;;7.72;3.75;;;12.60;99.90;;;11.27;93.10;100894.66;4963297;28;20027;-73
2022/10/05 03:17:15;;;;;;;8.73;4.03;;;12.60;99.90;;;11.27;93.42;100902.84;4965106;28;20102;-74
2022/10/05 03:20:24;;;;;;;7.97;4.28;;;12.50;99.90;;;11.22;93.90;100908.94;4963486;28;20050;-75
2022/10/05 03:22:59;;;;;;;7.85;4.30;;;12.50;99.90;;;11.17;94.57;100910.66;4953776;28;20063;-73
2022/10/05 03:26:18;;;;;;;8.82;4.28;;;12.40;99.90;;;11.06;95.70;100912.16;4961350;28;20043;-74
2022/10/05 03:29:12;;;;;;;8.10;4.10;;;12.30;99.90;;;10.82;97.29;100889.09;4963186;28;20039;-76
2022/10/05 03:31:54;;;;;;;5.95;3.72;;;12.20;99.90;;;10.94;97.40;100910.06;4963840;28;20027;-76
2022/10/05 03:34:43;;;;;;;8.15;4.30;;;12.20;99.90;;;10.94;97.34;100909.25;4964130;28;20042;-74
2022/10/05 03:37:18;;;;;;;8.93;4.15;;;12.20;99.90;;;10.95;97.44;100905.44;4962161;28;20027;-76
2022/10/05 03:39:56;;;;;;;7.47;4.40;;;12.20;99.90;;;10.95;97.49;100894.53;4971285;28;20022;-74
2022/10/05 03:42:46;;;;;;;9.95;4.68;;;12.20;99.90;;;10.96;97.32;100887.16;4960283;28;20037;-75
2022/10/05 03:45:31;;;;;;;8.85;4.28;;;12.20;99.90;;;10.96;97.65;100887.16;4963128;28;20135;-75
2022/10/05 03:48:24;;;;;;;10.98;4.70;;;12.20;99.90;;;10.88;97.94;100871.88;4964735;28;20030;-74
2022/10/05 03:51:07;;;;;;;8.27;4.55;;;12.20;99.90;;;10.94;97.79;100868.28;4976295;28;20067;-75
2022/10/05 03:54:08;;;;;;;7.35;4.22;;;12.20;99.90;;;10.83;98.06;100860.75;4961169;28;20118;-76
2022/10/05 03:56:43;;;;;;;8.73;4.65;;;12.10;99.90;;;10.62;99.07;100849.06;4962569;28;20179;-76
2022/10/05 03:59:33;;;;;;;8.60;4.60;;;12.10;99.90;;;10.67;100.00;100860.16;4956974;28;20026;-75
2022/10/05 04:02:14;;;;;;;7.50;4.00;;;12.00;99.90;;;10.66;100.00;100866.66;4964990;28;20110;-73
2022/10/05 04:05:09;;;;;;;8.93;4.82;;;11.90;99.90;;;10.66;100.00;100874.84;4961803;28;20089;-74
2022/10/05 04:07:52;;;;;;;8.48;4.75;;;11.90;99.90;;;10.67;100.00;100859.31;4961443;28;20037;-75
2022/10/05 04:10:32;;;;;;;8.07;4.78;;;11.90;99.90;;;10.62;100.00;100846.31;4962073;28;20042;-73
2022/10/05 04:13:38;;;;;;;9.45;4.97;;;11.90;99.90;;;10.72;100.00;100854.91;4962705;28;20098;-74
2022/10/05 04:16:24;;;;;;;7.50;4.75;;;11.90;99.90;;;10.69;100.00;100844.41;4976540;28;20027;-75
2022/10/05 04:19:03;;;;;;;11.63;5.57;;;11.90;99.90;;;10.64;100.00;100849.69;4959004;28;20038;-75
2022/10/05 04:21:38;;;;;;;11.05;6.03;;;11.90;99.90;;;10.56;100.00;100830.78;4959269;28;20058;-76
2022/10/05 04:24:14;;;;;;;8.57;5.45;;;11.90;99.90;;;10.55;100.00;100829.97;4961957;28;20509;-75
2022/10/05 04:26:52;;;;;;;11.68;5.00;;;11.80;99.90;;;10.52;100.00;100822.19;4963349;28;20260;-73
2022/10/05 04:29:41;;;;;;;11.40;5.63;;;11.80;99.90;;;10.41;100.00;100825.56;4958957;28;20070;-73
2022/10/05 04:32:40;;;;;;;9.63;5.47;;;11.80;99.90;;;10.47;100.00;100819.25;4959102;28;20034;-73
2022/10/05 04:35:52;;;;;;;9.18;5.75;;;11.80;99.90;;;10.49;100.00;100823.44;4958292;28;20501;-73
2022/10/05 04:38:55;;;;;;;10.68;5.75;;;11.80;99.90;;;10.55;100.00;100834.56;4964271;28;20522;-75
2022/10/05 04:41:59;;;;;;;10.52;5.90;;;11.80;99.90;;;10.60;100.00;100835.59;4961399;28;20054;-74
2022/10/05 04:44:52;;;;;;;11.35;5.20;;;11.80;99.90;;;10.59;100.00;100831.19;4959698;28;20125;-73
2022/10/05 04:47:39;;;;;;;9.35;5.22;;;11.90;99.90;;;10.55;100.00;100827.22;4961891;28;20030;-73
2022/10/05 04:50:30;;;;;;;10.13;4.93;;;11.80;99.90;;;10.39;100.00;100819.44;4951754;28;20122;-73
2022/10/05 04:53:32;;;;;;;11.50;4.85;;;11.80;99.90;;;10.40;100.00;100816.53;4964581;28;20561;-73
2022/10/05 04:56:14;;;;;;;10.77;4.90;;;11.70;99.90;;;10.38;100.00;100818.63;4964277;28;20039;-73
2022/10/05 04:59:10;;;;;;;9.52;5.10;;;11.70;99.90;;;10.35;100.00;100810.88;4956919;28;20105;-74
2022/10/05 05:02:05;;;;;;;10.27;4.82;;;11.70;99.90;;;10.40;100.00;100821.13;4955723;28;20031;-74
2022/10/05 05:05:16;;;;;;;14.13;5.90;;;11.70;99.90;;;10.33;100.00;100830.16;4961068;28;20047;-73
2022/10/05 05:07:52;;;;;;;9.55;4.75;;;11.60;99.90;;;10.32;100.00;100833.94;4978399;28;20047;-73
2022/10/05 05:10:38;;;;;;;9.00;4.53;;;11.60;99.90;;;10.40;100.00;100837.47;4962411;28;20549;-73
2022/10/05 05:13:28;;;;;;;9.35;4.78;;;11.60;99.90;;;10.36;100.00;100845.28;4957772;28;20056;-74
2022/10/05 05:16:30;;;;;;;10.55;4.97;;;11.60;99.90;;;10.30;100.00;100835.19;4959243;28;20117;-74
2022/10/05 05:19:22;;;;;;;8.85;5.32;;;11.60;99.90;;;10.26;100.00;100837.50;4957295;28;20080;-73
2022/10/05 05:22:01;;;;;;;11.85;4.68;;;11.60;99.90;;;10.24;100.00;100830.56;4959668;28;20026;-74
2022/10/05 05:24:58;;;;;;;14.18;6.75;;;11.50;99.90;;;10.22;100.00;100834.34;4959821;28;20027;-73
2022/10/05 05:28:08;;;;;;;14.93;6.53;;;11.60;99.90;;;10.14;100.00;100841.88;4956670;28;20437;-73
2022/10/05 05:30:49;;;;;;;15.75;6.07;;;11.50;99.90;;;10.00;100.00;100844.63;4961754;28;20105;-73
2022/10/05 05:33:28;;;;;;;17.15;7.38;;;11.30;99.90;;;9.98;100.00;100848.59;4965325;28;20568;-73
2022/10/05 05:36:26;;;;;;;19.38;7.13;;;11.30;99.90;;;9.92;100.00;100852.97;4970015;28;20038;-73
2022/10/05 05:39:22;;;;;;;13.32;6.47;;;11.20;99.90;;;9.86;100.00;100856.53;4965958;28;20026;-74
2022/10/05 05:42:40;;;;;;;12.13;5.97;;;11.20;99.90;;;9.87;100.00;100859.06;4965204;28;20417;-73
2022/10/05 05:45:27;;;;;;;11.85;5.82;;;11.10;99.90;;;9.86;100.00;100859.25;4964070;28;20039;-74
2022/10/05 05:47:58;;;;;;;13.65;6.10;;;11.20;99.90;;;9.87;100.00;100866.41;4969913;28;20188;-74
2022/10/05 05:50:48;;;;;;;12.32;5.90;;;11.20;99.90;;;9.84;100.00;100861.38;4967944;28;20046;-73
2022/10/05 05:53:25;;;;;;;11.50;6.07;;;11.20;99.90;;;9.86;100.00;100860.13;4968133;28;20378;-76
2022/10/05 05:56:00;;;;;;;16.23;6.70;;;11.20;99.90;;;9.77;100.00;100834.09;4982391;28;20053;-75
2022/10/05 05:58:38;;;;;;;12.50;6.18;;;11.20;99.90;;;9.91;100.00;100863.06;4965249;28;20042;-75
2022/10/05 06:01:38;;;;;;;13.70;6.18;;;11.20;99.90;;;9.99;100.00;100858.44;4970680;28;20066;-75
2022/10/05 06:04:40;;;;;;;12.32;6.00;;;11.30;99.90;;;10.01;100.00;100856.34;4969842;28;20027;-75
2022/10/05 06:07:14;;;;;;;11.45;6.03;;;11.30;99.90;;;10.08;100.00;100849.03;4967450;28;20033;-75
2022/10/05 06:09:52;;;;;;;10.98;6.50;;;11.40;99.90;;;10.19;100.00;100855.72;4967588;28;20134;-75
2022/10/05 06:12:41;;;;;;;12.38;5.60;;;11.50;99.90;;;10.30;100.00;100857.00;4966230;28;20046;-75
2022/10/05 06:15:31;;;;;;;10.93;6.13;;;11.60;99.90;;;10.35;100.00;100846.31;4980907;28;20271;-75
2022/10/05 06:18:09;;;;;;;11.70;5.97;;;11.60;99.90;;;10.46;100.00;100853.88;4963024;28;20038;-74
2022/10/05 06:20:53;;;;;;;12.77;5.53;;;11.70;99.90;;;10.53;100.00;100853.88;4980534;28;20121;-75
2022/10/05 06:23:48;;;;;;;10.68;5.75;;;11.80;99.90;;;10.69;100.00;100836.22;4965920;28;20080;-75
2022/10/05 06:27:01;;;;;;;9.38;5.53;;;11.90;99.90;;;10.86;100.00;100843.94;4978070;28;20023;-74
2022/10/05 06:30:03;;;;;;;9.60;5.55;;;12.10;99.90;;;10.99;100.00;100856.72;4969678;28;20018;-75
2022/10/05 06:32:49;;;;;;;10.77;5.72;;;12.20;99.90;;;11.05;100.00;100859.44;4961544;28;20596;-74
2022/10/05 06:35:28;;;;;;;9.65;5.45;;;12.40;99.90;;;11.12;100.00;100848.50;4981915;28;20035;-75
2022/10/05 06:38:32;;;;;;;11.48;5.47;;;12.40;99.90;;;11.08;100.00;100853.53;4965172;28;20031;-75
2022/10/05 06:41:14;;;;;;;11.15;5.55;;;12.40;99.90;;;11.08;100.00;100853.53;4966201;28;20105;-75
2022/10/05 06:44:15;;;;;;;12.57;6.00;;;12.40;99.90;;;11.16;100.00;100859.84;4960464;28;20414;-75
2022/10/05 06:47:18;;;;;;;10.90;5.30;;;12.40;99.90;;;11.18;100.00;100861.28;4959177;28;20062;-74
2022/10/05 06:50:45;;;;;;;11.15;5.05;;;12.50;99.90;;;11.30;100.00;100860.63;4957314;28;21055;-76
2022/10/05 06:53:39;;;;;;;9.93;5.00;;;12.60;99.90;;;11.42;99.92;100856.13;4963158;28;20046;-76
2022/10/05 06:56:35;;;;;;;14.98;5.40;;;12.60;99.90;;;11.46;99.08;100859.28;4963665;28;20118;-75
2022/10/05 06:59:13;;;;;;;14.70;6.05;;;12.70;99.90;;;11.46;98.41;100846.44;4964589;28;20035;-75
2022/10/05 07:02:11;;;;;;;14.23;5.90;;;12.80;99.90;;;11.57;98.71;100842.19;4963327;28;20053;-76
2022/10/05 07:05:25;;;;;;;8.07;5.32;;;12.90;99.90;;;11.84;96.54;100857.59;4964912;28;20041;-76
2022/10/05 07:08:19;;;;;;;8.52;5.07;;;13.10;99.90;;;11.96;95.21;100855.00;4968038;28;20079;-75
2022/10/05 07:11:37;;;;;;;8.55;5.15;;;13.30;99.90;;;12.17;93.55;100857.38;4962369;28;20041;-75
2022/10/05 07:14:46;;;;;;;7.78;4.43;;;13.40;99.90;;;12.52;90.93;100851.41;4957514;28;20594;-76
2022/10/05 07:17:33;;;;;;;7.03;4.75;;;13.70;99.90;;;12.70;89.61;100868.09;4959084;28;20130;-75
2022/10/05 07:20:46;;;;;;;9.25;5.00;;;14.00;99.90;;;12.80;88.36;100861.03;4974730;28;20038;-75
2022/10/05 07:23:26;;;;;;;7.93;4.38;;;14.20;99.90;;;12.70;88.58;100860.69;4960079;28;20062;-75
2022/10/05 07:26:08;;;;;;;10.32;5.65;;;14.10;99.90;;;12.87;88.20;100860.97;4978883;28;20315;-75
2022/10/05 07:28:49;;;;;;;8.95;5.03;;;14.10;99.90;;;13.01;86.74;100849.84;4980528;28;20474;-75
2022/10/05 07:31:36;;;;;;;9.05;4.95;;;14.30;99.90;;;13.36;84.97;100860.19;4960920;28;20038;-75
2022/10/05 07:34:40;;;;;;;11.63;4.75;;;14.60;99.90;;;13.34;82.68;100863.16;4965678;28;20068;-75
2022/10/05 07:37:56;;;;;;;6.53;4.32;;;14.60;99.90;;;13.31;83.82;100860.88;4974969;28;20122;-76
2022/10/05 07:40:51;;;;;;;8.70;4.57;;;14.60;99.90;;;13.18;84.94;100856.41;4964850;28;20122;-75
2022/10/05 07:43:20;;;;;;;7.07;4.35;;;14.50;99.90;;;13.16;85.45;100849.47;4961801;28;20031;-75
2022/10/05 07:46:28;;;;;;;9.70;5.28;;;14.50;99.90;;;13.24;84.25;100849.16;4949931;28;20285;-74
2022/10/05 07:49:24;;;;;;;8.40;4.93;;;14.50;99.90;;;13.22;84.39;100846.66;4956905;28;20038;-75
2022/10/05 07:52:05;;;;;;;7.30;4.53;;;14.50;99.90;;;13.22;84.58;100859.50;4959695;28;20051;-77
2022/10/05 07:55:00;;;;;;;11.07;4.82;;;14.40;99.90;;;13.17;85.42;100853.88;4960946;28;20041;-75
2022/10/05 07:57:38;;;;;;;9.35;4.70;;;14.40;99.90;;;13.11;85.92;100861.09;4961333;28;20129;-75
2022/10/05 08:00:47;;;;;;;11.77;5.30;;;14.40;99.90;;;13.08;86.01;100856.09;4960134;28;20513;-75
2022/10/05 08:03:30;;;;;;;9.18;5.10;;;14.40;99.90;;;13.08;86.17;100845.13;4960228;28;20482;-75
2022/10/05 08:06:00;;;;;;;10.77;5.10;;;14.40;99.90;;;13.07;88.03;100843.47;4966524;28;20035;-74
2022/10/05 08:08:42;;;;;;;7.43;4.72;;;14.40;99.90;;;13.04;88.48;100857.63;4962487;28;20030;-74
2022/10/05 08:11:17;;;;;;;12.32;5.25;;;14.40;99.90;;;13.02;88.17;100857.00;4959456;28;20039;-75
2022/10/05 08:13:54;;;;;;;10.27;5.18;;;14.30;99.90;;;12.92;89.49;100861.13;4957118;28;20118;-74
2022/10/05 08:16:29;;;;;;;9.77;5.25;;;14.30;99.90;;;13.00;89.63;100857.25;4961614;28;20093;-75
2022/10/05 08:19:20;;;;;;;15.15;5.30;;;14.30;99.90;;;13.13;88.46;100855.41;4966536;28;20557;-75
2022/10/05 08:22:08;;;;;;;9.18;5.05;;;14.30;99.90;;;13.28;87.11;100858.63;4954944;28;20027;-74
2022/10/05 08:24:57;;;;;;;9.73;5.30;;;14.50;99.90;;;13.76;85.15;100856.09;4959487;28;20037;-75
2022/10/05 08:27:46;;;;;;;11.50;5.43;;;14.90;99.90;;;14.19;81.66;100871.47;4960989;28;20062;-74
2022/10/05 08:30:15;;;;;;;9.05;5.18;;;15.30;99.90;;;14.45;79.32;100869.38;4965744;28;20395;-76
2022/10/05 08:33:15;;;;;;;10.82;5.25;;;15.60;99.90;;;14.87;78.03;100873.94;4965644;28;20513;-77
2022/10/05 08:35:48;;;;;;;8.73;5.68;;;16.00;99.90;;;15.09;74.97;100865.06;4952444;28;20617;-79
2022/10/05 08:38:33;;;;;;;8.57;5.00;;;16.20;99.90;;;15.11;73.46;100854.66;4960498;28;20089;-79
2022/10/05 08:41:22;;;;;;;9.75;5.47;;;16.40;99.90;;;15.36;72.50;100870.84;4958184;28;20038;-75
2022/10/05 08:44:37;;;;;;;9.23;5.13;;;16.60;99.90;;;15.41;74.27;100878.38;4963508;28;20046;-79
2022/10/05 08:47:39;;;;;;;8.98;4.70;;;16.60;99.90;;;15.36;73.14;100861.78;4962294;28;20038;-77
2022/10/05 08:50:25;;;;;;;9.82;4.95;;;16.80;99.90;;;15.78;71.47;100866.16;4952531;28;20414;-78
2022/10/05 08:53:51;;;;;;;10.45;4.82;;;16.90;99.90;;;16.04;71.07;100872.16;4960716;28;20624;-76
2022/10/05 08:56:36;;;;;;;8.70;4.93;;;17.10;99.90;;;16.02;71.22;100879.84;4966554;28;20661;-75
2022/10/05 08:59:44;;;;;;;7.97;4.50;;;17.30;99.90;;;15.99;70.46;100874.81;4962477;28;20114;-78
2022/10/05 09:02:48;;;;;;;6.55;4.30;;;17.30;99.90;;;15.83;71.96;100871.75;4957137;28;20034;-75
2022/10/05 09:05:53;;;;;;;9.52;4.80;;;17.10;99.90;;;15.88;70.90;100857.25;4952694;28;20089;-77
2022/10/05 09:08:46;;;;;;;9.55;4.88;;;17.20;99.90;;;15.71;72.59;100879.22;4958209;28;20389;-75
2022/10/05 09:11:31;;;;;;;9.55;5.05;;;17.10;99.90;;;15.85;72.10;100866.84;4962309;28;20035;-76
2022/10/05 09:14:43;;;;;;;8.77;4.88;;;17.10;99.90;;;16.05;70.98;100871.06;4960481;28;20034;-75
2022/10/05 09:18:03;;;;;;;9.00;4.63;;;17.30;99.90;;;15.93;70.18;100877.50;4955878;28;20043;-76
2022/10/05 09:20:52;;;;;;;10.38;4.72;;;17.30;99.90;;;15.91;70.98;100868.66;4953107;28;20037;-76
2022/10/05 09:23:43;;;;;;;8.73;4.90;;;17.20;99.90;;;15.78;72.61;100857.91;4955354;28;20118;-75
2022/10/05 09:26:56;;;;;;;6.68;4.53;;;17.10;99.90;;;15.88;72.03;100865.53;4960224;28;20057;-75
2022/10/05 09:29:50;;;;;;;7.13;4.25;;;17.10;99.90;;;15.91;69.99;100865.91;4955488;28;20552;-74
2022/10/05 09:32:40;;;;;;;7.78;3.75;;;17.10;99.90;;;16.13;68.76;100867.09;4958445;28;20122;-75
2022/10/05 09:35:31;;;;;;;5.47;3.45;;;17.20;99.90;;;16.15;67.26;100868.50;4955302;28;20074;-76
2022/10/05 09:38:18;;;;;;;6.75;3.28;;;17.40;99.90;;;16.33;66.76;100880.34;4955003;28;20066;-76
2022/10/05 09:41:18;;;;;;;6.07;3.20;;;17.50;99.90;;;16.23;65.79;100878.25;4959028;28;20227;-75
2022/10/05 09:44:22;;;;;;;5.70;3.22;;;17.50;99.90;;;16.17;66.39;100871.81;4956128;28;20042;-76
2022/10/05 09:47:25;;;;;;;8.25;3.42;;;17.40;99.90;;;16.22;66.23;100874.69;4954953;28;20174;-76
2022/10/05 09:50:25;;;;;;;6.90;3.25;;;17.40;99.90;;;16.40;65.72;100875.50;4953408;28;20038;-75
2022/10/05 09:53:39;;;;;;;5.93;3.40;;;17.50;99.90;;;16.56;64.63;100870.25;4957119;28;20054;-75
2022/10/05 09:56:23;;;;;;;4.60;3.30;;;17.70;99.90;;;16.85;64.68;100868.22;4959081;28;20039;-76
2022/10/05 09:59:38;;;;;;;4.65;3.28;;;17.90;99.90;;;16.79;63.31;100880.22;4958298;28;20038;-77
2022/10/05 10:02:29;;;;;;;6.97;3.50;;;18.00;99.90;;;16.77;63.21;100879.66;4952292;28;20110;-75
2022/10/05 10:05:59;;;;;;;5.57;3.05;;;17.90;99.90;;;16.66;64.49;100865.75;4952718;28;20474;-77
2022/10/05 10:09:26;;;;;;;6.55;3.00;;;17.90;99.90;;;17.00;63.34;100866.78;4955921;28;20075;-76
2022/10/05 10:12:17;;;;;;;5.38;3.40;;;18.20;99.90;;;17.07;63.21;100870.19;4962689;28;20039;-76
2022/10/05 10:15:17;;;;;;;6.05;3.33;;;18.20;99.90;;;16.45;65.13;100861.84;4953549;28;20054;-77
2022/10/05 10:18:24;;;;;;;7.10;4.07;;;17.80;99.90;;;16.35;64.83;100851.50;4960632;28;20042;-76
2022/10/05 10:21:31;;;;;;;7.28;3.72;;;17.70;99.90;;;16.53;65.43;100864.16;4964985;28;20034;-75
2022/10/05 10:24:29;;;;;;;6.88;3.55;;;17.70;99.90;;;16.37;65.36;100854.84;4967674;28;20050;-76
2022/10/05 10:27:10;;;;;;;5.35;3.22;;;17.70;99.90;;;16.62;64.84;100856.31;4961075;28;20364;-76
2022/10/05 10:30:09;;;;;;;6.47;3.72;;;17.80;99.90;;;16.51;64.65;100858.09;4962731;28;20034;-78
2022/10/05 10:33:00;;;;;;;6.82;3.40;;;17.80;99.90;;;17.04;64.44;100852.25;4958617;28;20041;-78
2022/10/05 10:35:35;;;;;;;5.75;3.33;;;18.10;99.90;;;16.99;63.79;100854.94;4962422;28;20035;-76
2022/10/05 10:38:26;;;;;;;5.72;3.08;;;18.10;99.90;;;16.66;65.18;100863.00;4966917;28;20457;-79
2022/10/05 10:41:29;;;;;;;6.65;3.20;;;18.00;99.90;;;16.51;66.09;100854.47;4962316;28;20413;-80
2022/10/05 10:44:38;;;;;;;5.82;3.25;;;17.80;99.90;;;16.36;66.17;100846.81;4959814;28;20035;-80
2022/10/05 10:47:46;;;;;;;6.10;3.45;;;17.60;99.90;;;16.02;66.78;100852.31;4960070;28;20038;-79
2022/10/05 10:50:49;;;;;;;6.03;3.33;;;17.40;99.90;;;16.27;67.51;100842.81;4963882;28;20045;-79
2022/10/05 10:54:11;;;;;;;5.72;3.08;;;17.30;99.90;;;16.14;67.93;100839.31;4961295;28;20043;-80
2022/10/05 10:56:48;;;;;;;6.15;2.95;;;17.30;99.90;;;16.12;66.85;100838.72;4995402;28;20066;-79
2022/10/05 11:00:02;;;;;;;4.38;2.80;;;17.40;99.90;;;16.24;68.96;100850.50;4960427;28;20497;-78
2022/10/05 11:02:59;;;;;;;8.70;3.30;;;17.40;99.90;;;16.18;67.58;100845.16;4960584;28;20030;-80
2022/10/05 11:06:11;;;;;;;6.88;3.08;;;17.30;99.90;;;16.00;67.35;100855.28;4962060;28;20104;-76
2022/10/05 11:09:09;;;;;;;9.35;3.38;;;17.30;99.90;;;16.06;68.18;100839.72;4962096;28;20579;-77
2022/10/05 11:12:19;;;;;;;5.93;3.22;;;17.20;99.90;;;15.72;68.38;100817.66;4955400;28;20058;-78
2022/10/05 11:15:34;;;;;;;6.68;3.42;;;17.00;99.90;;;15.92;68.56;100834.56;4958530;28;20022;-78
2022/10/05 11:18:51;;;;;;;5.15;3.30;;;17.00;99.90;;;16.17;66.38;100844.31;4959997;28;20046;-77
2022/10/05 11:21:30;;;;;;;5.70;3.08;;;17.20;99.90;;;16.65;65.42;100828.25;4962213;28;20506;-77
2022/10/05 11:24:37;;;;;;;6.18;3.28;;;17.60;99.90;;;17.65;61.89;100839.44;4961429;28;20033;-79
2022/10/05 11:27:19;;;;;;;5.85;3.17;;;;;;;19.03;57.02;100832.50;4957018;28;20033;-79
2022/10/05 11:30:25;;;;;;;5.45;2.85;;;18.40;99.90;;;21.60;48.59;100820.72;4960877;28;20040;-77
2022/10/05 11:33:55;;;;;;;4.60;2.58;;;21.80;95.00;;;22.38;46.75;100817.38;4961134;28;20046;-78
2022/10/05 11:37:22;;;;;;;3.67;2.63;;;23.40;90.50;;;19.52;52.74;100813.88;4959796;28;20035;-77
2022/10/05 11:40:19;;;;;;;7.47;3.42;;;22.10;90.60;;;18.71;56.06;100816.84;4962229;28;20050;-77
2022/10/05 11:43:24;;;;;;;6.80;3.30;;;20.50;94.10;;;17.54;60.20;100805.41;4955245;28;20062;-80
2022/10/05 11:46:44;;;;;;;5.43;3.45;;;19.30;97.00;;;17.02;62.65;100796.56;4983933;28;20146;-78
2022/10/05 11:49:41;;;;;;;6.10;3.78;;;18.50;99.60;;;17.06;63.63;100792.19;4982208;28;20065;-80
2022/10/05 11:52:37;;;;;;;5.75;3.70;;;18.30;99.90;;;17.62;62.66;100796.66;4960103;28;20055;-82
2022/10/05 11:55:28;;;;;;;5.38;3.72;;;18.50;99.90;;;17.24;62.80;100779.19;4959966;28;20062;-78